createdAt,value
2022-08-14T00:02:20.405Z,26.15
2022-08-14T00:04:47.072Z,26.14
2022-08-14T00:07:14.673Z,26.14
2022-08-14T00:10:02.238Z,26.13
2022-08-14T00:12:33.518Z,26.12
2022-08-14T00:15:14.992Z,26.10
2022-08-14T00:17:47.879Z,26.09
2022-08-14T00:20:30.903Z,26.05
2022-08-14T00:23:16.657Z,26.02
2022-08-14T00:25:53.867Z,26.00
2022-08-14T00:28:32.443Z,25.95
2022-08-14T00:31:00.210Z,25.91
2022-08-14T00:33:49.243Z,25.89
2022-08-14T00:36:35.753Z,25.84
2022-08-14T00:39:03.793Z,25.82
2022-08-14T00:41:33.740Z,25.81
2022-08-14T00:44:00.807Z,25.79
2022-08-14T00:46:32.176Z,25.77
2022-08-14T00:48:59.685Z,25.76
2022-08-14T00:51:36.807Z,25.74
2022-08-14T00:54:16.654Z,25.69
2022-08-14T00:56:50.064Z,25.65
2022-08-14T00:59:16.628Z,25.62
2022-08-14T01:01:44.301Z,25.57
2022-08-14T01:04:51.737Z,25.55
2022-08-14T01:07:00.753Z,25.52
2022-08-14T01:09:31.898Z,25.52
2022-08-14T01:12:03.220Z,25.50
2022-08-14T01:14:32.602Z,25.46
2022-08-14T01:17:02.592Z,25.43
2022-08-14T01:19:48.097Z,25.40
2022-08-14T01:22:18.952Z,25.37
2022-08-14T01:24:47.004Z,25.31
2022-08-14T01:27:19.627Z,25.28
2022-08-14T01:30:00.620Z,25.25
2022-08-14T01:32:37.326Z,25.20
2022-08-14T01:35:20.411Z,25.16
2022-08-14T01:37:57.893Z,25.12
2022-08-14T01:40:36.619Z,25.07
2022-08-14T01:43:14.520Z,25.05
2022-08-14T01:45:42.721Z,25.02
2022-08-14T01:48:16.114Z,24.99
2022-08-14T01:50:47.535Z,24.98
2022-08-14T01:53:17.784Z,24.95
2022-08-14T01:55:44.568Z,24.91
2022-08-14T01:58:20.107Z,24.89
2022-08-14T02:00:55.750Z,24.87
2022-08-14T02:03:31.969Z,24.87
2022-08-14T02:06:03.898Z,24.87
2022-08-14T02:08:53.115Z,24.87
2022-08-14T02:11:22.787Z,24.87
2022-08-14T02:14:07.618Z,24.83
2022-08-14T02:16:54.206Z,24.80
2022-08-14T02:19:24.611Z,24.76
2022-08-14T02:21:54.624Z,24.71
2022-08-14T02:24:39.088Z,24.67
2022-08-14T02:28:23.173Z,24.62
2022-08-14T02:30:00.935Z,24.57
2022-08-14T02:32:37.202Z,24.50
2022-08-14T02:35:16.831Z,24.42
2022-08-14T02:37:49.734Z,24.36
2022-08-14T02:40:18.996Z,24.28
2022-08-14T02:42:55.121Z,24.23
2022-08-14T02:45:38.633Z,24.18
2022-08-14T02:49:01.113Z,24.15
2022-08-14T02:51:08.995Z,24.12
2022-08-14T02:53:45.486Z,24.07
2022-08-14T02:56:29.577Z,24.03
2022-08-14T02:59:01.826Z,24.01
2022-08-14T03:01:43.003Z,23.98
2022-08-14T03:04:13.107Z,23.93
2022-08-14T03:06:58.169Z,23.89
2022-08-14T03:09:42.099Z,23.86
2022-08-14T03:12:17.836Z,23.83
2022-08-14T03:14:58.522Z,23.78
2022-08-14T03:17:25.034Z,23.75
2022-08-14T03:19:52.439Z,23.71
2022-08-14T03:22:19.010Z,23.65
2022-08-14T03:24:45.810Z,23.60
2022-08-14T03:27:13.997Z,23.58
2022-08-14T03:29:40.990Z,23.56
2022-08-14T03:32:08.069Z,23.51
2022-08-14T03:34:47.795Z,23.47
2022-08-14T03:37:51.539Z,23.45
2022-08-14T03:40:06.740Z,23.43
2022-08-14T03:42:39.415Z,23.42
2022-08-14T03:45:19.483Z,23.41
2022-08-14T03:47:58.347Z,23.39
2022-08-14T03:50:31.138Z,23.35
2022-08-14T03:53:02.010Z,23.34
2022-08-14T03:55:30.361Z,23.35
2022-08-14T03:57:57.436Z,23.34
2022-08-14T04:00:44.374Z,23.35
2022-08-14T04:03:23.549Z,23.33
2022-08-14T04:05:51.805Z,23.32
2022-08-14T04:08:29.354Z,23.33
2022-08-14T04:10:59.409Z,23.32
2022-08-14T04:13:37.469Z,23.31
2022-08-14T04:16:12.509Z,23.31
2022-08-14T04:18:45.799Z,23.30
2022-08-14T04:21:14.873Z,23.29
2022-08-14T04:23:49.258Z,23.27
2022-08-14T04:26:27.323Z,23.24
2022-08-14T04:29:14.947Z,23.21
2022-08-14T04:33:02.076Z,23.18
2022-08-14T04:34:31.086Z,23.18
2022-08-14T04:37:21.945Z,23.14
2022-08-14T04:40:08.768Z,23.13
2022-08-14T04:42:54.914Z,23.09
2022-08-14T04:45:42.300Z,23.03
2022-08-14T04:48:39.621Z,23.01
2022-08-14T04:51:03.490Z,22.91
2022-08-14T04:53:40.907Z,22.82
2022-08-14T04:56:31.200Z,22.75
2022-08-14T04:59:09.680Z,22.70
2022-08-14T05:01:44.768Z,22.69
2022-08-14T05:04:16.042Z,22.70
2022-08-14T05:06:43.113Z,22.72
2022-08-14T05:09:13.899Z,22.73
2022-08-14T05:11:42.061Z,22.77
2022-08-14T05:14:42.738Z,22.76
2022-08-14T05:17:01.584Z,22.76
2022-08-14T05:19:29.901Z,22.77
2022-08-14T05:22:16.110Z,22.79
2022-08-14T05:24:50.406Z,22.84
2022-08-14T05:27:22.664Z,22.88
2022-08-14T05:29:51.857Z,22.91
2022-08-14T05:32:18.452Z,22.93
2022-08-14T05:34:49.830Z,22.96
2022-08-14T05:37:16.339Z,23.01
2022-08-14T05:39:43.746Z,23.07
2022-08-14T05:42:22.071Z,23.13
2022-08-14T05:44:55.831Z,23.18
2022-08-14T05:47:23.820Z,23.22
2022-08-14T05:49:51.410Z,23.27
2022-08-14T05:52:19.084Z,23.31
2022-08-14T05:55:11.287Z,23.35
2022-08-14T05:57:55.032Z,23.40
2022-08-14T06:00:34.778Z,23.48
2022-08-14T06:03:16.589Z,23.56
2022-08-14T06:05:45.089Z,23.64
2022-08-14T06:08:35.997Z,23.75
2022-08-14T06:11:08.481Z,23.87
2022-08-14T06:13:45.318Z,23.97
2022-08-14T06:16:17.772Z,24.11
2022-08-14T06:18:52.427Z,24.23
2022-08-14T06:21:23.328Z,24.35
2022-08-14T06:23:50.375Z,24.50
2022-08-14T06:26:20.619Z,24.64
2022-08-14T06:28:52.249Z,24.81
2022-08-14T06:31:21.394Z,24.99
2022-08-14T06:35:04.194Z,25.18
2022-08-14T06:36:37.957Z,25.39
2022-08-14T06:39:08.123Z,25.55
2022-08-14T06:41:56.935Z,25.74
2022-08-14T06:44:32.833Z,25.96
2022-08-14T06:47:03.330Z,26.19
2022-08-14T06:49:31.061Z,26.38
2022-08-14T06:52:10.709Z,26.56
2022-08-14T06:54:43.117Z,26.73
2022-08-14T06:57:09.610Z,26.90
2022-08-14T06:59:36.285Z,27.09
2022-08-14T07:02:21.795Z,27.24
2022-08-14T07:05:12.243Z,27.43
2022-08-14T07:07:48.552Z,27.61
2022-08-14T07:10:17.271Z,27.75
2022-08-14T07:13:01.177Z,27.91
2022-08-14T07:15:33.970Z,28.08
2022-08-14T07:18:08.918Z,28.22
2022-08-14T07:20:36.118Z,28.41
2022-08-14T07:23:10.813Z,28.63
2022-08-14T07:25:42.188Z,28.88
2022-08-14T07:28:13.031Z,29.09
2022-08-14T07:30:50.927Z,29.28
2022-08-14T07:33:20.731Z,29.46
2022-08-14T07:35:58.642Z,29.55
2022-08-14T07:38:32.138Z,29.66
2022-08-14T07:41:11.910Z,29.81
2022-08-14T07:43:47.510Z,29.95
2022-08-14T07:46:29.227Z,30.09
2022-08-14T07:48:56.885Z,30.24
2022-08-14T07:51:23.697Z,30.33
2022-08-14T07:53:56.940Z,30.47
2022-08-14T07:56:43.855Z,30.62
2022-08-14T07:59:11.470Z,30.73
2022-08-14T08:01:51.098Z,30.81
2022-08-14T08:04:25.316Z,31.02
2022-08-14T08:06:54.851Z,31.20
2022-08-14T08:09:32.210Z,31.37
2022-08-14T08:12:05.107Z,31.54
2022-08-14T08:14:55.550Z,31.66
2022-08-14T08:17:24.297Z,31.72
2022-08-14T08:19:51.650Z,31.77
2022-08-14T08:22:21.277Z,31.84
2022-08-14T08:24:50.571Z,31.93
2022-08-14T08:27:19.779Z,31.99
2022-08-14T08:29:50.714Z,32.08
2022-08-14T08:32:18.151Z,32.14
2022-08-14T08:34:46.478Z,32.26
2022-08-14T08:37:16.834Z,32.41
2022-08-14T08:40:03.386Z,32.51
2022-08-14T08:42:41.217Z,32.62
2022-08-14T08:45:14.569Z,32.70
2022-08-14T08:47:43.817Z,32.75
2022-08-14T08:53:07.834Z,32.96
2022-08-14T08:55:36.939Z,33.06
2022-08-14T08:58:12.722Z,33.18
2022-08-14T09:00:48.792Z,33.32
2022-08-14T09:03:21.630Z,33.37
2022-08-14T09:05:56.183Z,33.44
2022-08-14T09:08:31.678Z,33.50
2022-08-14T09:11:19.565Z,33.60
2022-08-14T09:13:54.042Z,33.74
2022-08-14T09:16:23.590Z,33.83
2022-08-14T09:18:53.451Z,33.89
2022-08-14T09:21:20.919Z,33.89
2022-08-14T09:24:28.588Z,33.96
2022-08-14T09:26:49.184Z,34.09
2022-08-14T09:29:17.941Z,34.26
2022-08-14T09:31:52.889Z,34.42
2022-08-14T09:34:59.063Z,34.53
2022-08-14T09:37:35.031Z,34.58
2022-08-14T09:40:29.237Z,34.60
2022-08-14T09:43:14.072Z,34.72
2022-08-14T09:45:52.858Z,34.81
2022-08-14T09:48:27.930Z,34.87
2022-08-14T09:54:18.643Z,35.01
2022-08-14T09:56:31.001Z,35.13
2022-08-14T09:59:10.664Z,35.22
2022-08-14T10:01:37.537Z,35.29
2022-08-14T10:04:34.515Z,35.31
2022-08-14T10:07:05.933Z,35.42
2022-08-14T10:09:35.050Z,35.50
2022-08-14T10:12:04.816Z,35.61
2022-08-14T10:14:36.652Z,35.70
2022-08-14T10:17:06.389Z,35.76
2022-08-14T10:19:36.411Z,35.79
2022-08-14T10:23:14.422Z,35.83
2022-08-14T10:24:57.449Z,35.89
2022-08-14T10:27:27.191Z,35.97
2022-08-14T10:30:04.465Z,36.06
2022-08-14T10:32:41.813Z,36.16
2022-08-14T10:35:16.943Z,36.23
2022-08-14T10:37:48.018Z,36.37
2022-08-14T10:40:37.907Z,36.53
2022-08-14T10:43:26.026Z,36.73
2022-08-14T10:46:03.308Z,36.87
2022-08-14T10:48:36.981Z,37.00
2022-08-14T10:51:08.676Z,37.13
2022-08-14T10:53:40.221Z,37.27
2022-08-14T10:56:21.848Z,37.36
2022-08-14T10:59:08.306Z,37.40
2022-08-14T11:01:40.799Z,37.46
2022-08-14T11:04:26.127Z,37.54
2022-08-14T11:06:56.422Z,37.60
2022-08-14T11:09:23.354Z,37.67
2022-08-14T11:12:34.777Z,37.74
2022-08-14T11:15:02.539Z,37.81
2022-08-14T11:17:32.666Z,37.86
2022-08-14T11:20:01.390Z,37.92
2022-08-14T11:23:03.081Z,37.97
2022-08-14T11:25:20.462Z,38.02
2022-08-14T11:27:49.133Z,38.05
2022-08-14T11:30:50.674Z,37.98
2022-08-14T11:33:13.686Z,37.98
2022-08-14T11:35:48.481Z,37.95
2022-08-14T11:38:17.955Z,37.99
2022-08-14T11:40:47.533Z,38.03
2022-08-14T11:43:18.678Z,38.11
2022-08-14T11:45:56.281Z,38.23
2022-08-14T11:48:59.049Z,38.34
2022-08-14T11:51:17.787Z,38.47
2022-08-14T11:54:00.942Z,38.61
2022-08-14T11:56:37.847Z,38.70
2022-08-14T11:59:10.288Z,38.83
2022-08-14T12:01:41.347Z,38.99
2022-08-14T12:04:21.659Z,39.09
2022-08-14T12:07:01.207Z,39.17
2022-08-14T12:09:32.993Z,39.16
2022-08-14T12:12:01.184Z,39.17
2022-08-14T12:14:30.532Z,39.16
2022-08-14T12:17:09.564Z,39.18
2022-08-14T12:19:51.339Z,39.15
2022-08-14T12:22:34.303Z,39.06
2022-08-14T12:25:10.004Z,39.08
2022-08-14T12:27:53.062Z,39.09
2022-08-14T12:30:39.598Z,39.09
2022-08-14T12:33:30.475Z,39.11
2022-08-14T12:36:04.161Z,39.10
2022-08-14T12:38:43.953Z,39.01
2022-08-14T12:41:20.972Z,39.02
2022-08-14T12:44:04.701Z,39.10
2022-08-14T12:46:43.404Z,39.18
2022-08-14T12:49:17.098Z,39.21
2022-08-14T12:51:59.350Z,39.15
2022-08-14T12:54:32.240Z,39.06
2022-08-14T12:57:08.432Z,39.07
2022-08-14T12:59:37.043Z,39.08
2022-08-14T13:02:25.264Z,39.09
2022-08-14T13:04:56.776Z,39.19
2022-08-14T13:07:27.078Z,39.29
2022-08-14T13:09:59.762Z,39.36
2022-08-14T13:12:32.243Z,39.39
2022-08-14T13:15:09.601Z,39.42
2022-08-14T13:17:41.278Z,39.46
2022-08-14T13:20:10.718Z,39.46
2022-08-14T13:22:51.760Z,39.52
2022-08-14T13:25:22.275Z,39.59
2022-08-14T13:27:54.527Z,39.62
2022-08-14T13:30:24.853Z,39.67
2022-08-14T13:32:53.868Z,39.75
2022-08-14T13:35:22.635Z,39.80
2022-08-14T13:37:52.163Z,39.79
2022-08-14T13:40:26.520Z,39.80
2022-08-14T13:43:02.824Z,39.77
2022-08-14T13:45:59.754Z,39.78
2022-08-14T13:48:30.662Z,39.71
2022-08-14T13:51:02.836Z,39.64
2022-08-14T13:53:33.751Z,39.64
2022-08-14T13:56:01.460Z,39.59
2022-08-14T13:58:35.546Z,39.47
2022-08-14T14:01:04.283Z,39.37
2022-08-14T14:03:35.245Z,39.26
2022-08-14T14:06:02.819Z,39.21
2022-08-14T14:08:46.905Z,39.15
2022-08-14T14:11:16.656Z,39.04
2022-08-14T14:13:48.747Z,38.91
2022-08-14T14:16:26.090Z,38.78
2022-08-14T14:19:06.070Z,38.65
2022-08-14T14:21:35.199Z,38.56
2022-08-14T14:24:04.852Z,38.46
2022-08-14T14:26:33.172Z,38.36
2022-08-14T14:29:06.319Z,38.30
2022-08-14T14:31:36.486Z,38.26
2022-08-14T14:34:29.601Z,38.28
2022-08-14T14:37:02.657Z,38.30
2022-08-14T14:39:30.546Z,38.25
2022-08-14T14:42:04.245Z,38.25
2022-08-14T14:44:40.257Z,38.27
2022-08-14T14:47:12.107Z,38.31
2022-08-14T14:49:51.137Z,38.32
2022-08-14T14:52:27.561Z,38.34
2022-08-14T14:54:58.444Z,38.40
2022-08-14T14:57:35.474Z,38.46
2022-08-14T15:00:06.678Z,38.52
2022-08-14T15:02:42.652Z,38.58
2022-08-14T15:05:10.087Z,38.60
2022-08-14T15:07:37.654Z,38.60
2022-08-14T15:10:06.943Z,38.56
2022-08-14T15:12:55.895Z,38.47
2022-08-14T15:15:33.374Z,38.43
2022-08-14T15:18:36.232Z,38.37
2022-08-14T15:21:01.329Z,38.29
2022-08-14T15:23:44.624Z,38.18
2022-08-14T15:26:24.263Z,38.10
2022-08-14T15:29:03.052Z,38.04
2022-08-14T15:31:32.609Z,38.01
2022-08-14T15:34:46.050Z,37.97
2022-08-14T15:37:04.741Z,37.90
2022-08-14T15:39:34.103Z,37.83
2022-08-14T15:42:09.341Z,37.74
2022-08-14T15:44:44.801Z,37.64
2022-08-14T15:47:28.050Z,37.56
2022-08-14T15:49:56.300Z,37.44
2022-08-14T15:52:33.052Z,37.32
2022-08-14T15:55:14.767Z,37.21
2022-08-14T15:58:02.004Z,37.11
2022-08-14T16:00:52.452Z,37.03
2022-08-14T16:03:27.206Z,36.90
2022-08-14T16:06:01.220Z,36.78
2022-08-14T16:08:29.275Z,36.69
2022-08-14T16:10:59.078Z,36.58
2022-08-14T16:13:44.641Z,36.50
2022-08-14T16:16:50.427Z,36.42
2022-08-14T16:19:09.782Z,36.36
2022-08-14T16:21:39.399Z,36.32
2022-08-14T16:24:06.595Z,36.30
2022-08-14T16:26:33.786Z,36.28
2022-08-14T16:29:09.134Z,36.25
2022-08-14T16:31:36.672Z,36.22
2022-08-14T16:34:44.291Z,36.19
2022-08-14T16:36:53.702Z,36.16
2022-08-14T16:39:22.838Z,36.12
2022-08-14T16:41:58.761Z,36.09
2022-08-14T16:44:36.374Z,36.07
2022-08-14T16:47:04.226Z,36.05
2022-08-14T16:49:50.578Z,36.03
2022-08-14T16:52:26.391Z,36.02
2022-08-14T16:55:09.370Z,36.00
2022-08-14T16:57:54.649Z,35.99
2022-08-14T17:00:29.398Z,36.00
2022-08-14T17:03:03.087Z,36.00
2022-08-14T17:05:30.935Z,35.98
2022-08-14T17:08:32.400Z,35.95
2022-08-14T17:11:10.667Z,35.94
2022-08-14T17:13:57.696Z,35.92
2022-08-14T17:16:37.568Z,35.89
2022-08-14T17:19:17.579Z,35.88
2022-08-14T17:21:46.804Z,35.85
2022-08-14T17:27:04.224Z,35.77
2022-08-14T17:29:44.791Z,35.72
2022-08-14T17:32:29.819Z,35.67
2022-08-14T17:35:16.820Z,35.62
2022-08-14T17:37:46.277Z,35.55
2022-08-14T17:40:19.849Z,35.47
2022-08-14T17:42:51.311Z,35.41
2022-08-14T17:45:27.026Z,35.33
2022-08-14T17:47:59.525Z,35.27
2022-08-14T17:51:00.848Z,35.18
2022-08-14T17:53:30.572Z,35.12
2022-08-14T17:56:02.229Z,35.04
2022-08-14T17:58:38.526Z,34.95
2022-08-14T18:01:13.300Z,34.85
2022-08-14T18:03:45.804Z,34.75
2022-08-14T18:06:39.722Z,34.63
2022-08-14T18:09:25.405Z,34.53
2022-08-14T18:11:58.122Z,34.40
2022-08-14T18:14:32.360Z,34.34
2022-08-14T18:17:01.566Z,34.26
2022-08-14T18:19:31.535Z,34.17
2022-08-14T18:22:05.674Z,34.07
2022-08-14T18:24:50.627Z,33.96
2022-08-14T18:27:32.681Z,33.85
2022-08-14T18:30:33.058Z,33.77
2022-08-14T18:32:55.232Z,33.66
2022-08-14T18:35:59.066Z,33.53
2022-08-14T18:38:45.460Z,33.43
2022-08-14T18:41:36.424Z,33.30
2022-08-14T18:44:10.716Z,33.18
2022-08-14T18:47:09.963Z,33.06
2022-08-14T18:49:57.856Z,32.94
2022-08-14T18:52:34.431Z,32.82
2022-08-14T18:55:20.873Z,32.70
2022-08-14T18:58:24.527Z,32.60
2022-08-14T19:00:58.740Z,32.50
2022-08-14T19:03:36.326Z,32.41
2022-08-14T19:06:08.158Z,32.33
2022-08-14T19:08:49.658Z,32.22
2022-08-14T19:11:32.527Z,32.12
2022-08-14T19:14:04.977Z,32.04
2022-08-14T19:16:37.094Z,31.94
2022-08-14T19:19:08.675Z,31.84
2022-08-14T19:21:43.187Z,31.76
2022-08-14T19:24:43.721Z,31.66
2022-08-14T19:27:19.275Z,31.59
2022-08-14T19:29:47.984Z,31.51
2022-08-14T19:32:50.951Z,31.41
2022-08-14T19:35:48.819Z,31.36
2022-08-14T19:38:47.816Z,31.26
2022-08-14T19:41:16.339Z,31.19
2022-08-14T19:43:55.909Z,31.14
2022-08-14T19:46:37.975Z,31.08
2022-08-14T19:50:08.949Z,31.03
2022-08-14T19:52:31.626Z,30.94
2022-08-14T19:55:20.107Z,30.90
2022-08-14T19:57:58.350Z,30.86
2022-08-14T20:00:28.983Z,30.81
2022-08-14T20:03:18.790Z,30.76
2022-08-14T20:06:00.596Z,30.72
2022-08-14T20:11:00.152Z,30.68
2022-08-14T20:11:58.523Z,30.62
2022-08-14T20:14:23.659Z,30.59
2022-08-14T20:17:03.231Z,30.53
2022-08-14T20:19:38.118Z,30.49
2022-08-14T20:22:36.201Z,30.45
2022-08-14T20:25:13.876Z,30.38
2022-08-14T20:27:44.306Z,30.34
2022-08-14T20:30:34.834Z,30.31
2022-08-14T20:33:11.534Z,30.25
2022-08-14T20:35:47.634Z,30.20
2022-08-14T20:38:29.464Z,30.16
2022-08-14T20:41:06.786Z,30.12
2022-08-14T20:43:57.556Z,30.08
2022-08-14T20:46:31.606Z,30.01
2022-08-14T20:49:02.303Z,29.98
2022-08-14T20:51:47.698Z,29.94
2022-08-14T20:54:34.531Z,29.91
2022-08-14T20:57:11.988Z,29.88
2022-08-14T20:59:52.935Z,29.84
2022-08-14T21:02:30.353Z,29.82
2022-08-14T21:05:16.879Z,29.79
2022-08-14T21:07:51.155Z,29.76
2022-08-14T21:10:36.161Z,29.71
2022-08-14T21:14:09.074Z,29.67
2022-08-14T21:15:57.893Z,29.67
2022-08-14T21:18:47.778Z,29.61
2022-08-14T21:21:21.206Z,29.57
2022-08-14T21:23:54.581Z,29.55
2022-08-14T21:26:51.025Z,29.51
2022-08-14T21:29:14.299Z,29.48
2022-08-14T21:31:42.689Z,29.44
2022-08-14T21:34:30.960Z,29.38
2022-08-14T21:37:06.401Z,29.33
2022-08-14T21:39:35.874Z,29.28
2022-08-14T21:42:02.445Z,29.24
2022-08-14T21:44:43.274Z,29.22
2022-08-14T21:47:11.991Z,29.20
2022-08-14T21:49:39.994Z,29.16
2022-08-14T21:52:49.223Z,29.13
2022-08-14T21:55:00.267Z,29.08
2022-08-14T21:57:56.499Z,29.06
2022-08-14T22:00:30.136Z,29.02
2022-08-14T22:03:10.718Z,28.98
2022-08-14T22:05:41.216Z,28.96
2022-08-14T22:08:12.005Z,28.91
2022-08-14T22:10:42.497Z,28.89
2022-08-14T22:13:17.537Z,28.86
2022-08-14T22:15:49.379Z,28.84
2022-08-14T22:18:20.354Z,28.80
2022-08-14T22:20:53.733Z,28.79
2022-08-14T22:23:26.461Z,28.76
2022-08-14T22:25:55.354Z,28.75
2022-08-14T22:28:32.809Z,28.74
2022-08-14T22:31:10.068Z,28.73
2022-08-14T22:33:40.431Z,28.71
2022-08-14T22:36:33.639Z,28.69
2022-08-14T22:39:01.657Z,28.68
2022-08-14T22:41:32.541Z,28.65
2022-08-14T22:44:16.511Z,28.59
2022-08-14T22:46:45.278Z,28.55
2022-08-14T22:49:16.954Z,28.51
2022-08-14T22:52:02.782Z,28.47
2022-08-14T22:54:54.451Z,28.40
2022-08-14T22:57:22.531Z,28.34
2022-08-14T22:59:50.118Z,28.29
2022-08-14T23:02:30.214Z,28.27
2022-08-14T23:04:59.864Z,28.26
2022-08-14T23:08:58.197Z,28.25
2022-08-14T23:10:33.894Z,28.24
2022-08-14T23:13:04.884Z,28.23
2022-08-14T23:15:33.519Z,28.21
2022-08-14T23:18:00.798Z,28.19
2022-08-14T23:20:31.805Z,28.17
2022-08-14T23:23:01.204Z,28.14
2022-08-14T23:25:56.922Z,28.12
2022-08-14T23:28:34.218Z,28.12
2022-08-14T23:31:11.749Z,28.09
2022-08-14T23:33:46.031Z,28.09
2022-08-14T23:36:31.657Z,28.07
2022-08-14T23:39:00.194Z,28.03
2022-08-14T23:41:26.768Z,27.96
2022-08-14T23:44:15.349Z,27.93
2022-08-14T23:46:43.400Z,27.90
2022-08-14T23:49:12.576Z,27.87
2022-08-14T23:51:39.240Z,27.84
2022-08-14T23:54:48.073Z,27.80
2022-08-14T23:57:02.668Z,27.77
2022-08-14T23:59:30.726Z,27.73
